createdAt,value
2022-11-11T00:01:12.635Z,81.51
2022-11-11T00:06:33.405Z,81.42
2022-11-11T00:11:54.143Z,80.72
2022-11-11T00:17:33.729Z,80.50
2022-11-11T00:23:17.376Z,80.12
2022-11-11T00:28:38.106Z,79.91
2022-11-11T00:33:58.530Z,79.97
2022-11-11T00:39:19.167Z,80.35
2022-11-11T00:44:39.516Z,80.46
2022-11-11T00:50:18.269Z,80.62
2022-11-11T00:55:39.033Z,80.63
2022-11-11T01:00:59.922Z,80.81
2022-11-11T01:06:20.515Z,80.91
2022-11-11T01:11:40.819Z,81.25
2022-11-11T01:17:01.633Z,81.17
2022-11-11T01:22:22.294Z,81.36
2022-11-11T01:27:42.633Z,81.59
2022-11-11T01:33:04.103Z,81.27
2022-11-11T01:38:24.758Z,81.00
2022-11-11T01:43:45.635Z,79.69
2022-11-11T01:49:31.094Z,79.24
2022-11-11T01:54:56.619Z,78.42
2022-11-11T02:00:19.258Z,78.18
2022-11-11T02:05:44.177Z,77.72
2022-11-11T02:11:17.017Z,77.26
2022-11-11T02:16:37.471Z,76.91
2022-11-11T02:22:02.511Z,77.17
2022-11-11T02:27:25.107Z,76.93
2022-11-11T02:32:49.766Z,77.19
2022-11-11T02:38:14.666Z,76.48
2022-11-11T02:43:35.404Z,76.36
2022-11-11T02:48:55.975Z,76.50
2022-11-11T02:54:16.575Z,76.81
2022-11-11T02:59:39.385Z,77.39
2022-11-11T03:04:59.728Z,78.50
2022-11-11T03:10:20.270Z,79.09
2022-11-11T03:15:41.980Z,79.62
2022-11-11T03:21:38.175Z,80.39
2022-11-11T03:26:46.068Z,80.35
2022-11-11T03:32:07.985Z,80.60
2022-11-11T03:37:47.183Z,80.57
2022-11-11T03:43:07.491Z,80.78
2022-11-11T03:48:30.675Z,80.47
2022-11-11T03:53:51.200Z,80.48
2022-11-11T03:59:11.453Z,79.82
2022-11-11T04:04:50.590Z,79.76
2022-11-11T04:10:23.357Z,79.54
2022-11-11T04:16:02.203Z,79.06
2022-11-11T04:21:43.129Z,78.77
2022-11-11T04:27:10.223Z,78.65
2022-11-11T04:32:38.569Z,78.24
2022-11-11T04:38:19.208Z,77.72
2022-11-11T04:43:58.336Z,77.58
2022-11-11T04:49:18.745Z,77.37
2022-11-11T04:54:59.215Z,77.47
2022-11-11T05:00:19.995Z,77.77
2022-11-11T05:05:59.418Z,77.58
2022-11-11T05:11:20.607Z,77.57
2022-11-11T05:17:02.981Z,77.25
2022-11-11T05:22:42.725Z,76.74
2022-11-11T05:28:03.070Z,76.12
2022-11-11T05:33:23.881Z,76.32
2022-11-11T05:38:44.756Z,76.12
2022-11-11T05:44:05.340Z,76.12
2022-11-11T05:49:25.989Z,76.10
2022-11-11T05:54:46.896Z,75.81
2022-11-11T06:00:08.179Z,75.66
2022-11-11T06:05:28.539Z,75.53
2022-11-11T06:10:51.617Z,75.96
2022-11-11T06:16:12.033Z,75.41
2022-11-11T06:21:52.692Z,74.90
2022-11-11T06:27:13.088Z,75.05
2022-11-11T06:32:33.762Z,74.51
2022-11-11T06:37:54.524Z,73.57
2022-11-11T06:43:15.015Z,73.26
2022-11-11T06:48:35.443Z,73.19
2022-11-11T06:53:55.773Z,72.20
2022-11-11T06:59:16.243Z,71.66
2022-11-11T07:04:36.360Z,71.58
2022-11-11T07:09:57.288Z,70.90
2022-11-11T07:15:17.783Z,70.34
2022-11-11T07:20:39.107Z,70.71
2022-11-11T07:25:59.212Z,70.36
2022-11-11T07:31:19.872Z,70.12
2022-11-11T07:36:40.584Z,69.45
2022-11-11T07:42:01.563Z,70.37
2022-11-11T07:47:22.013Z,69.60
2022-11-11T07:52:48.696Z,68.78
2022-11-11T07:58:09.740Z,68.10
2022-11-11T08:03:30.017Z,66.57
2022-11-11T08:08:50.612Z,65.20
2022-11-11T08:14:10.982Z,64.20
2022-11-11T08:19:31.641Z,63.31
2022-11-11T08:25:07.828Z,63.60
2022-11-11T08:30:29.436Z,62.31
2022-11-11T08:35:50.262Z,61.58
2022-11-11T08:41:10.839Z,61.19
2022-11-11T08:46:31.232Z,60.26
2022-11-11T08:51:51.981Z,58.34
2022-11-11T08:57:12.308Z,57.10
2022-11-11T09:02:32.581Z,56.13
2022-11-11T09:07:52.933Z,55.58
2022-11-11T09:13:31.733Z,54.11
2022-11-11T09:18:52.418Z,53.17
2022-11-11T09:24:12.939Z,52.28
2022-11-11T09:29:33.408Z,52.04
2022-11-11T09:34:55.385Z,50.08
2022-11-11T09:40:21.200Z,51.86
2022-11-11T09:46:05.132Z,52.40
2022-11-11T09:51:55.241Z,49.05
2022-11-11T09:57:46.000Z,48.03
2022-11-11T10:03:11.751Z,48.47
2022-11-11T10:09:02.711Z,47.83
2022-11-11T10:14:23.617Z,47.88
2022-11-11T10:20:23.256Z,50.20
2022-11-11T10:26:19.809Z,50.89
2022-11-11T10:31:42.532Z,51.13
2022-11-11T10:37:03.837Z,51.33
2022-11-11T10:42:24.379Z,52.82
2022-11-11T10:47:57.661Z,52.94
2022-11-11T10:53:30.186Z,52.88
2022-11-11T10:59:09.196Z,50.69
2022-11-11T11:04:35.712Z,50.77
2022-11-11T11:10:05.131Z,49.72
2022-11-11T11:15:28.762Z,48.36
2022-11-11T11:21:01.150Z,49.57
2022-11-11T11:26:21.520Z,48.75
2022-11-11T11:31:47.639Z,49.18
2022-11-11T11:37:08.782Z,48.39
2022-11-11T11:42:33.895Z,48.82
2022-11-11T11:48:24.071Z,48.77
2022-11-11T11:54:07.444Z,48.91
2022-11-11T11:59:42.017Z,48.72
2022-11-11T12:05:09.202Z,49.25
2022-11-11T12:10:40.648Z,48.31
2022-11-11T12:16:18.461Z,49.06
2022-11-11T12:22:03.015Z,48.23
2022-11-11T12:27:39.569Z,50.63
2022-11-11T12:33:29.892Z,48.41
2022-11-11T12:38:54.257Z,48.01
2022-11-11T12:44:15.409Z,48.59
2022-11-11T12:49:57.662Z,48.13
2022-11-11T12:55:20.847Z,48.33
2022-11-11T13:00:56.317Z,50.06
2022-11-11T13:06:33.652Z,49.94
2022-11-11T13:11:59.622Z,49.84
2022-11-11T13:17:22.094Z,49.73
2022-11-11T13:22:42.690Z,50.32
2022-11-11T13:28:21.418Z,50.15
2022-11-11T13:33:49.072Z,49.56
2022-11-11T13:39:30.160Z,49.61
2022-11-11T13:44:54.385Z,49.94
2022-11-11T13:50:26.631Z,50.11
2022-11-11T13:55:47.434Z,49.71
2022-11-11T14:01:11.316Z,50.88
2022-11-11T14:06:34.595Z,51.28
2022-11-11T14:12:22.352Z,50.88
2022-11-11T14:17:52.027Z,51.12
2022-11-11T14:23:16.894Z,50.24
2022-11-11T14:28:51.542Z,50.67
2022-11-11T14:34:18.022Z,50.95
2022-11-11T14:39:51.493Z,51.17
2022-11-11T14:45:25.335Z,50.30
2022-11-11T14:50:53.273Z,50.37
2022-11-11T14:56:21.336Z,51.15
2022-11-11T15:01:42.092Z,49.89
2022-11-11T15:07:02.798Z,49.73
2022-11-11T15:12:53.235Z,49.44
2022-11-11T15:18:26.300Z,49.73
2022-11-11T15:24:37.029Z,50.11
2022-11-11T15:30:03.033Z,50.09
2022-11-11T15:35:27.780Z,52.61
2022-11-11T15:41:00.041Z,51.88
2022-11-11T15:46:31.116Z,55.54
2022-11-11T15:51:57.019Z,52.39
2022-11-11T15:57:39.403Z,49.00
2022-11-11T16:03:06.865Z,43.16
2022-11-11T16:08:28.944Z,43.17
2022-11-11T16:14:08.003Z,42.30
2022-11-11T16:19:48.829Z,44.18
2022-11-11T16:25:19.682Z,44.76
2022-11-11T16:30:40.547Z,43.77
2022-11-11T16:36:11.176Z,45.71
2022-11-11T16:41:32.009Z,46.74
2022-11-11T16:46:52.623Z,46.34
2022-11-11T16:52:19.108Z,47.22
2022-11-11T16:57:43.243Z,46.41
2022-11-11T17:03:17.472Z,47.59
2022-11-11T17:08:46.685Z,46.27
2022-11-11T17:14:07.531Z,48.84
2022-11-11T17:19:28.188Z,46.83
2022-11-11T17:24:48.988Z,50.51
2022-11-11T17:30:10.417Z,52.42
2022-11-11T17:35:30.892Z,51.29
2022-11-11T17:40:51.243Z,52.34
2022-11-11T17:46:11.859Z,51.26
2022-11-11T17:51:32.371Z,50.29
2022-11-11T17:56:54.200Z,51.38
2022-11-11T18:02:14.687Z,50.18
2022-11-11T18:07:44.899Z,51.77
2022-11-11T18:13:05.638Z,53.22
2022-11-11T18:18:27.281Z,54.07
2022-11-11T18:23:51.581Z,56.24
2022-11-11T18:29:12.374Z,53.20
2022-11-11T18:34:39.388Z,52.74
2022-11-11T18:40:06.792Z,51.16
2022-11-11T18:45:27.919Z,50.89
2022-11-11T18:50:55.031Z,50.38
2022-11-11T18:56:18.115Z,50.01
2022-11-11T19:01:40.968Z,52.52
2022-11-11T19:07:01.453Z,51.67
2022-11-11T19:12:22.115Z,50.89
2022-11-11T19:17:42.598Z,51.98
2022-11-11T19:23:03.260Z,49.86
2022-11-11T19:28:23.621Z,52.88
2022-11-11T19:33:46.429Z,53.99
2022-11-11T19:39:09.827Z,55.62
2022-11-11T19:44:30.099Z,55.53
2022-11-11T19:49:50.744Z,54.46
2022-11-11T19:55:11.452Z,55.13
2022-11-11T20:00:31.845Z,54.86
2022-11-11T20:05:52.345Z,59.18
2022-11-11T20:11:12.767Z,61.27
2022-11-11T20:16:33.436Z,59.03
2022-11-11T20:21:53.847Z,61.96
2022-11-11T20:27:14.322Z,62.50
2022-11-11T20:32:35.731Z,60.60
2022-11-11T20:37:56.343Z,61.49
2022-11-11T20:43:17.091Z,60.44
2022-11-11T20:48:39.575Z,61.24
2022-11-11T20:53:59.824Z,60.15
2022-11-11T20:59:20.424Z,61.34
2022-11-11T21:04:42.368Z,62.85
2022-11-11T21:10:02.852Z,59.82
2022-11-11T21:15:23.776Z,58.37
2022-11-11T21:20:45.171Z,58.74
2022-11-11T21:26:10.643Z,57.32
2022-11-11T21:31:40.092Z,57.82
2022-11-11T21:37:00.347Z,57.84
2022-11-11T21:42:20.536Z,58.73
2022-11-11T21:47:43.807Z,57.78
2022-11-11T21:53:10.206Z,58.55
2022-11-11T21:58:37.616Z,57.79
2022-11-11T22:04:04.031Z,59.25
2022-11-11T22:09:24.414Z,59.81
2022-11-11T22:14:46.284Z,60.13
2022-11-11T22:20:07.107Z,61.31
2022-11-11T22:25:27.789Z,61.62
2022-11-11T22:30:48.296Z,59.70
2022-11-11T22:36:14.588Z,61.15
2022-11-11T22:41:37.463Z,61.25
2022-11-11T22:46:58.262Z,59.09
2022-11-11T22:52:18.641Z,58.38
2022-11-11T22:57:39.099Z,58.07
2022-11-11T23:02:59.715Z,58.11
2022-11-11T23:08:20.020Z,60.36
2022-11-11T23:13:42.185Z,58.90
2022-11-11T23:19:06.101Z,58.59
2022-11-11T23:24:26.572Z,58.45
2022-11-11T23:29:52.060Z,58.85
2022-11-11T23:35:12.708Z,58.17
2022-11-11T23:40:33.385Z,58.03
2022-11-11T23:45:57.526Z,57.47
2022-11-11T23:51:18.964Z,56.71
2022-11-11T23:56:39.543Z,57.33
